Time;durP1;ratioP1;P1;durP2;ratioP2;P2;SDS_P1;SDS_P2;PMS_P1;PMS_P2;Temp;Humidity;BMP_temperature;BMP_pressure;BME280_temperature;BME280_humidity;BME280_pressure;Samples;Min_cycle;Max_cycle;Signal;HPM_P1;HPM_P2
2022/04/13 00:02:14;;;;;;;;;;;;;;;10.57;45.93;97797.38;4945639;28;20066;-93
2022/04/13 00:04:42;;;;;;;;;;;;;;;10.53;46.33;97795.59;4945642;28;19933;-93
2022/04/13 00:07:10;;;;;;;;;;;;;;;10.58;46.21;97796.25;4946026;28;19938;-94
2022/04/13 00:09:38;;;;;;;;;;;;;;;10.61;45.79;97792.91;4961916;28;19981;-93
2022/04/13 00:12:09;;;;;;;;;;;;;;;10.67;45.78;97791.66;4945977;28;19926;-93
2022/04/13 00:14:37;;;;;;;;;;;;;;;10.74;45.81;97786.56;4929159;29;19926;-92
2022/04/13 00:17:05;;;;;;;;;;;;;;;10.81;45.58;97785.28;4944996;28;19977;-92
2022/04/13 00:19:33;;;;;;;;;;;;;;;10.84;45.24;97785.47;4942064;28;19926;-93
2022/04/13 00:22:01;;;;;;;;;;;;;;;10.73;45.78;97786.88;4946137;28;19931;-91
2022/04/13 00:24:29;;;;;;;;;;;;;;;10.75;45.83;97787.34;4945719;28;19926;-92
2022/04/13 00:26:57;;;;;;;;;;;;;;;10.57;46.53;97791.13;4946012;28;20369;-93
2022/04/13 00:29:30;;;;;;;;;;;;;;;10.71;45.69;97786.41;4945947;28;19934;-93
2022/04/13 00:31:58;;;;;;;;;;;;;;;10.80;45.47;97784.50;4942264;29;19941;-92
2022/04/13 00:34:26;;;;;;;;;;;;;;;10.80;45.32;97775.53;4926831;29;20333;-92
2022/04/13 00:36:57;;;;;;;;;;;;;;;10.64;45.88;97781.41;4940129;28;19932;-93
2022/04/13 00:39:25;;;;;;;;;;;;;;;10.60;45.74;97776.91;4940308;29;19933;-92
2022/04/13 00:41:58;;;;;;;;;;;;;;;10.30;46.61;97782.06;4940111;28;20340;-90
2022/04/13 00:44:29;;;;;;;;;;;;;;;10.27;46.49;97782.69;4942785;29;19930;-91
2022/04/13 00:47:01;;;;;;;;;;;;;;;10.21;47.29;97783.91;4943915;28;20365;-94
2022/04/13 00:49:29;;;;;;;;;;;;;;;10.39;46.57;97788.34;4957720;28;20377;-93
2022/04/13 00:51:58;;;;;;;;;;;;;;;10.45;46.59;97784.38;4941337;29;19935;-92
2022/04/13 00:54:26;;;;;;;;;;;;;;;10.57;46.60;97780.28;4926252;29;19931;-91
2022/04/13 00:56:54;;;;;;;;;;;;;;;10.28;47.21;97789.75;4941301;28;19977;-92
2022/04/13 00:59:30;;;;;;;;;;;;;;;10.37;47.02;97793.28;4946123;28;19926;-93
2022/04/13 01:02:00;;;;;;;;;;;;;;;10.64;46.05;97788.75;4943940;28;19964;-93
2022/04/13 01:04:29;;;;;;;;;;;;;;;10.63;46.40;97789.88;4927792;29;19926;-92
2022/04/13 01:06:57;;;;;;;;;;;;;;;10.58;46.21;97784.59;4937003;28;19926;-92
2022/04/13 01:09:26;;;;;;;;;;;;;;;10.58;45.96;97795.44;4947944;28;19933;-92
2022/04/13 01:11:54;;;;;;;;;;;;;;;10.52;46.05;97792.06;4949922;28;20021;-93
2022/04/13 01:14:29;;;;;;;;;;;;;;;10.33;46.82;97786.06;4940523;29;19926;-93
2022/04/13 01:16:57;;;;;;;;;;;;;;;10.45;46.58;97795.25;4932524;28;19950;-93
2022/04/13 01:19:27;;;;;;;;;;;;;;;10.51;46.59;97805.97;4942421;29;19930;-93
2022/04/13 01:22:03;;;;;;;;;;;;;;;10.58;45.88;97809.03;4949718;28;19977;-92
2022/04/13 01:27:19;;;;;;;;;;;;;;;10.52;46.14;97805.66;4935378;28;19977;-92
2022/04/13 01:29:49;;;;;;;;;;;;;;;10.43;46.39;97802.88;4941565;29;19930;-91
2022/04/13 01:32:17;;;;;;;;;;;;;;;10.36;46.63;97797.13;4933145;28;19926;-92
2022/04/13 01:34:48;;;;;;;;;;;;;;;10.37;46.66;97798.72;4933984;29;19926;-93
2022/04/13 01:37:16;;;;;;;;;;;;;;;10.38;46.49;97796.78;4928884;29;19993;-93
2022/04/13 01:39:47;;;;;;;;;;;;;;;10.19;47.43;97795.09;4946843;29;19978;-92
2022/04/13 01:42:15;;;;;;;;;;;;;;;10.13;47.27;97787.41;4944712;28;19934;-93
2022/04/13 01:44:45;;;;;;;;;;;;;;;10.16;47.31;97789.47;4957271;29;20275;-92
2022/04/13 01:47:14;;;;;;;;;;;;;;;10.20;47.38;97782.31;4927897;28;19997;-93
2022/04/13 01:49:43;;;;;;;;;;;;;;;10.02;47.95;97783.34;4940477;28;19926;-93
2022/04/13 01:52:11;;;;;;;;;;;;;;;10.01;48.11;97784.44;4943937;28;19930;-92
2022/04/13 01:54:39;;;;;;;;;;;;;;;10.09;47.97;97786.41;4944098;28;19933;-93
2022/04/13 01:57:12;;;;;;;;;;;;;;;9.91;47.96;97797.16;4944359;28;19930;-93
2022/04/13 01:59:45;;;;;;;;;;;;;;;9.91;47.80;97788.22;4939466;29;19930;-94
2022/04/13 02:02:13;;;;;;;;;;;;;;;10.16;47.48;97801.13;4935789;28;19933;-93
2022/04/13 02:04:42;;;;;;;;;;;;;;;10.27;46.99;97788.13;4946049;28;19926;-91
2022/04/13 02:07:10;;;;;;;;;;;;;;;10.32;46.96;97798.84;4947134;28;19958;-91
2022/04/13 02:09:38;;;;;;;;;;;;;;;10.18;47.22;97809.78;4948413;28;19926;-91
2022/04/13 02:12:07;;;;;;;;;;;;;;;10.08;47.64;97801.09;4962852;28;19989;-92
2022/04/13 02:14:43;;;;;;;;;;;;;;;10.13;47.25;97804.47;4937807;28;19926;-93
2022/04/13 02:17:16;;;;;;;;;;;;;;;10.09;47.52;97799.97;4946588;28;19927;-92
2022/04/13 02:19:44;;;;;;;;;;;;;;;10.08;47.74;97801.09;4944039;28;19927;-91
2022/04/13 02:22:12;;;;;;;;;;;;;;;10.04;47.82;97800.91;4939633;29;20399;-93
2022/04/13 02:25:00;;;;;;;;;;;;;;;9.93;48.10;97794.94;4935072;28;20353;-92
2022/04/13 02:27:28;;;;;;;;;;;;;;;9.73;48.53;97798.13;4943294;28;19965;-93
2022/04/13 02:29:57;;;;;;;;;;;;;;;9.72;48.52;97799.25;4944606;28;19976;-91
2022/04/13 02:32:26;;;;;;;;;;;;;;;9.67;48.70;97800.19;4940044;29;19970;-91
2022/04/13 02:34:54;;;;;;;;;;;;;;;9.71;48.90;97797.66;4948146;28;19926;-92
2022/04/13 02:37:22;;;;;;;;;;;;;;;9.71;48.28;97789.53;4948251;28;19927;-91
2022/04/13 02:39:50;;;;;;;;;;;;;;;9.77;48.47;97799.13;4940588;28;19949;-91
2022/04/13 02:42:18;;;;;;;;;;;;;;;9.75;48.55;97787.81;4956102;29;19926;-91
2022/04/13 02:44:47;;;;;;;;;;;;;;;9.71;48.55;97797.66;4952300;29;19926;-91
2022/04/13 02:47:16;;;;;;;;;;;;;;;9.39;49.48;97801.41;4929490;28;19940;-92
2022/04/13 02:49:46;;;;;;;;;;;;;;;9.58;49.16;97798.50;4942234;28;20400;-90
2022/04/13 02:52:15;;;;;;;;;;;;;;;9.76;48.58;97800.25;4943933;28;19926;-91
2022/04/13 02:54:43;;;;;;;;;;;;;;;9.67;48.74;97796.66;4950279;28;19960;-90
2022/04/13 02:57:36;;;;;;;;;;;;;;;9.58;48.88;97795.78;4935951;29;20378;-92
2022/04/13 03:00:05;;;;;;;;;;;;;;;9.62;49.04;97799.50;4939150;28;19926;-91
2022/04/13 03:02:35;;;;;;;;;;;;;;;9.37;49.83;97801.69;4939849;29;19926;-93
2022/04/13 03:05:03;;;;;;;;;;;;;;;9.19;50.44;97808.84;4956690;28;20340;-92
2022/04/13 03:07:33;;;;;;;;;;;;;;;9.52;49.21;97797.03;4937143;29;20338;-92
2022/04/13 03:10:01;;;;;;;;;;;;;;;9.56;49.36;97796.09;4953727;28;19926;-92
2022/04/13 03:12:29;;;;;;;;;;;;;;;9.58;48.88;97793.88;4961403;28;20376;-91
2022/04/13 03:14:57;;;;;;;;;;;;;;;9.42;49.80;97793.44;4925713;29;19931;-88
2022/04/13 03:17:25;;;;;;;;;;;;;;;9.09;50.18;97805.56;4923755;28;19974;-90
2022/04/13 03:19:56;;;;;;;;;;;;;;;9.25;50.13;97806.84;4951049;28;20029;-92
2022/04/13 03:22:25;;;;;;;;;;;;;;;9.12;50.43;97810.41;4928331;29;19930;-91
2022/04/13 03:24:53;;;;;;;;;;;;;;;9.08;50.41;97804.78;4930124;29;20382;-91
2022/04/13 03:27:22;;;;;;;;;;;;;;;9.50;49.18;97797.34;4951227;28;19927;-91
2022/04/13 03:29:50;;;;;;;;;;;;;;;9.27;49.87;97807.34;4940828;29;19927;-92
2022/04/13 03:32:18;;;;;;;;;;;;;;;9.14;50.35;97794.63;4925851;29;19938;-92
2022/04/13 03:34:47;;;;;;;;;;;;;;;9.37;49.69;97792.75;4936071;28;19927;-92
2022/04/13 03:37:17;;;;;;;;;;;;;;;9.38;49.67;97787.03;4924090;29;20370;-91
2022/04/13 03:39:46;;;;;;;;;;;;;;;9.40;48.86;97789.44;4929480;28;19934;-91
2022/04/13 03:42:15;;;;;;;;;;;;;;;9.25;49.76;97804.13;4929171;29;19933;-91
2022/04/13 03:44:43;;;;;;;;;;;;;;;9.09;50.27;97802.84;4929101;28;19972;-91
2022/04/13 03:47:11;;;;;;;;;;;;;;;9.16;50.14;97808.66;4939067;28;19930;-90
2022/04/13 03:49:39;;;;;;;;;;;;;;;8.96;50.60;97803.69;4939727;28;19926;-90
2022/04/13 03:52:08;;;;;;;;;;;;;;;9.09;49.93;97808.28;4938454;29;19926;-91
2022/04/13 03:57:31;;;;;;;;;;;;;;;8.91;50.71;97810.03;4938550;28;19932;-90
2022/04/13 03:59:59;;;;;;;;;;;;;;;9.13;49.96;97815.50;4942135;28;19926;-92
2022/04/13 04:02:29;;;;;;;;;;;;;;;8.89;50.71;97818.47;4943033;28;20357;-92
2022/04/13 04:04:57;;;;;;;;;;;;;;;8.98;50.40;97817.72;4943270;28;19973;-91
2022/04/13 04:07:31;;;;;;;;;;;;;;;8.82;50.97;97820.75;4946634;28;20021;-91
2022/04/13 04:10:01;;;;;;;;;;;;;;;8.95;50.35;97821.03;4950202;28;19934;-91
2022/04/13 04:12:30;;;;;;;;;;;;;;;9.01;50.14;97820.66;4962289;28;19926;-91
2022/04/13 04:15:00;;;;;;;;;;;;;;;8.78;50.91;97821.66;4938427;29;20457;-90
2022/04/13 04:17:28;;;;;;;;;;;;;;;8.93;50.77;97822.16;4923724;29;19946;-92
2022/04/13 04:19:56;;;;;;;;;;;;;;;8.80;50.69;97822.16;4922847;29;19933;-91
2022/04/13 04:22:24;;;;;;;;;;;;;;;8.67;51.32;97823.75;4924451;29;20412;-89
2022/04/13 04:24:53;;;;;;;;;;;;;;;8.87;50.53;97815.22;4921222;29;19962;-88
2022/04/13 04:27:23;;;;;;;;;;;;;;;8.99;50.25;97816.63;4935719;29;20047;-90
2022/04/13 04:29:52;;;;;;;;;;;;;;;9.04;49.90;97819.22;4946953;28;19927;-89
2022/04/13 04:32:22;;;;;;;;;;;;;;;8.85;50.57;97819.38;4948490;29;19950;-92
2022/04/13 04:34:50;;;;;;;;;;;;;;;8.79;51.40;97815.97;4941426;29;19926;-87
2022/04/13 04:37:25;;;;;;;;;;;;;;;8.65;51.46;97815.16;4914020;29;19927;-89
2022/04/13 04:39:54;;;;;;;;;;;;;;;8.65;51.19;97815.16;4946175;29;19927;-91
2022/04/13 04:42:24;;;;;;;;;;;;;;;8.80;51.04;97817.56;4936534;29;19933;-76
2022/04/13 04:44:55;;;;;;;;;;;;;;;8.77;50.91;97823.56;4945439;29;20289;-75
2022/04/13 04:47:23;;;;;;;;;;;;;;;8.86;50.64;97819.06;4951060;29;19934;-82
2022/04/13 04:49:51;;;;;;;;;;;;;;;8.76;51.27;97834.72;4931424;29;19926;-76
2022/04/13 04:52:20;;;;;;;;;;;;;;;8.88;50.37;97841.22;4936667;29;19930;-76
2022/04/13 05:23:07;;;;;;;;;;;;;;;8.89;51.17;97869.09;4893862;29;19935;-78
2022/04/13 07:27:08;;;;;;;;;;;;;;;12.51;44.79;97933.81;4940583;28;19926;-94
2022/04/13 07:29:38;;;;;;;;;;;;;;;12.82;43.19;97928.13;4934427;28;19926;-94
2022/04/13 07:32:07;;;;;;;;;;;;;;;12.94;42.93;97934.84;4931793;28;20404;-94
2022/04/13 07:34:36;;;;;;;;;;;;;;;13.11;43.39;97934.78;4947890;28;19930;-93
2022/04/13 07:37:05;;;;;;;;;;;;;;;13.31;42.13;97942.25;4938919;28;19933;-93
2022/04/13 07:39:34;;;;;;;;;;;;;;;13.36;42.71;97930.34;4932943;28;19930;-94
2022/04/13 07:42:02;;;;;;;;;;;;;;;13.57;42.02;97942.13;4948999;28;20412;-93
2022/04/13 07:44:31;;;;;;;;;;;;;;;13.36;42.55;97944.00;4938567;28;19977;-95
2022/04/13 07:47:20;;;;;;;;;;;;;;;13.58;41.95;97949.19;4947618;28;19927;-93
2022/04/13 07:49:56;;;;;;;;;;;;;;;14.03;41.22;97951.31;4934638;28;19981;-94
2022/04/13 07:52:25;;;;;;;;;;;;;;;14.21;40.04;97951.16;4948244;28;20381;-95
2022/04/13 07:54:55;;;;;;;;;;;;;;;14.36;39.44;97947.84;4935301;28;19930;-93
2022/04/13 07:57:27;;;;;;;;;;;;;;;14.13;41.46;97956.38;4938341;28;19930;-93
2022/04/13 08:00:02;;;;;;;;;;;;;;;14.44;40.81;97957.91;4937519;28;19933;-94
2022/04/13 08:02:40;;;;;;;;;;;;;;;14.44;40.41;97955.16;4956937;28;19953;-96
2022/04/13 08:05:08;;;;;;;;;;;;;;;14.13;39.94;97958.31;4933654;28;19931;-93
2022/04/13 08:07:37;;;;;;;;;;;;;;;14.38;39.43;97960.03;4934807;28;19926;-93
2022/04/13 08:10:06;;;;;;;;;;;;;;;14.57;38.82;97965.03;4937442;28;19927;-93
2022/04/13 08:12:35;;;;;;;;;;;;;;;14.38;39.11;97961.94;4949307;28;19926;-93
2022/04/13 08:15:04;;;;;;;;;;;;;;;14.11;39.67;97969.59;4944567;28;20391;-93
2022/04/13 08:17:39;;;;;;;;;;;;;;;14.31;38.98;97964.44;4944698;28;19958;-93
2022/04/13 08:20:09;;;;;;;;;;;;;;;14.22;39.72;97970.00;4939829;28;19930;-94
2022/04/13 08:22:37;;;;;;;;;;;;;;;13.99;39.66;97969.50;4946283;28;19965;-94
2022/04/13 08:25:05;;;;;;;;;;;;;;;14.22;39.24;97972.72;4945303;28;20404;-95
2022/04/13 08:27:33;;;;;;;;;;;;;;;14.57;39.22;97972.44;4946310;28;20381;-95
2022/04/13 08:30:28;;;;;;;;;;;;;;;14.61;38.25;97982.38;4946955;28;19926;-93
2022/04/13 08:32:56;;;;;;;;;;;;;;;14.93;38.18;97985.44;4934228;29;20365;-94
2022/04/13 08:35:25;;;;;;;;;;;;;;;14.78;38.40;97986.88;4940918;28;20377;-92
2022/04/13 08:40:46;;;;;;;;;;;;;;;14.97;37.81;97983.63;4943157;28;19926;-94
2022/04/13 08:43:14;;;;;;;;;;;;;;;15.01;38.43;97976.34;4954207;28;19933;-79
2022/04/13 08:45:48;;;;;;;;;;;;;;;15.32;37.61;97980.50;4973639;28;20366;-93
2022/04/13 08:48:18;;;;;;;;;;;;;;;15.35;37.21;97982.56;4943239;28;19930;-94
2022/04/13 08:50:46;;;;;;;;;;;;;;;15.36;37.52;97978.69;4938269;28;20017;-77
2022/04/13 08:53:14;;;;;;;;;;;;;;;15.41;37.03;97978.47;4968775;28;19933;-76
2022/04/13 08:56:10;;;;;;;;;;;;;;;15.45;37.07;97984.84;4967483;28;19926;-82
2022/04/13 08:58:41;;;;;;;;;;;;;;;15.28;37.18;97974.09;4957363;28;19972;-79
2022/04/13 09:01:14;;;;;;;;;;;;;;;15.28;37.80;97979.56;4968802;28;19927;-79
2022/04/13 09:03:48;;;;;;;;;;;;;;;15.16;37.65;97969.41;4968811;28;19926;-79
2022/04/13 09:06:16;;;;;;;;;;;;;;;15.78;37.52;97971.06;4971527;28;19930;-81
2022/04/13 09:08:49;;;;;;;;;;;;;;;16.06;35.71;97975.81;4967499;28;20376;-80
2022/04/13 09:11:17;;;;;;;;;;;;;;;15.97;36.05;97975.94;4971635;28;20395;-80
2022/04/13 09:13:45;;;;;;;;;;;;;;;16.20;35.68;97979.00;4957573;28;19926;-77
2022/04/13 09:16:15;;;;;;;;;;;;;;;16.42;35.69;97978.47;4953460;28;20017;-78
2022/04/13 09:18:43;;;;;;;;;;;;;;;16.65;36.25;97984.22;4957582;28;20310;-79
2022/04/13 09:21:12;;;;;;;;;;;;;;;16.83;35.23;97979.28;4964267;28;20290;-81
2022/04/13 09:23:40;;;;;;;;;;;;;;;16.68;35.94;97978.03;4975424;28;19926;-81
2022/04/13 09:26:08;;;;;;;;;;;;;;;16.94;36.00;97980.34;4965251;28;19965;-80
2022/04/13 09:28:37;;;;;;;;;;;;;;;16.86;35.20;97986.78;4957263;28;20025;-83
2022/04/13 09:31:08;;;;;;;;;;;;;;;16.99;36.66;97979.28;4966638;28;19926;-80
2022/04/13 09:33:38;;;;;;;;;;;;;;;17.08;34.98;97970.88;4970833;28;20373;-80
2022/04/13 09:36:08;;;;;;;;;;;;;;;16.94;34.91;97987.78;4963928;28;19926;-80
2022/04/13 09:38:37;;;;;;;;;;;;;;;16.85;34.77;97974.22;4956541;28;19933;-79
2022/04/13 09:41:08;;;;;;;;;;;;;;;16.58;35.65;97973.06;4975592;28;19926;-79
2022/04/13 09:43:36;;;;;;;;;;;;;;;16.76;35.19;97971.63;4960089;28;19927;-84
2022/04/13 09:46:08;;;;;;;;;;;;;;;16.86;35.91;97964.81;4947638;28;19933;-84
2022/04/13 09:48:42;;;;;;;;;;;;;;;17.15;35.50;97965.56;4948524;28;19943;-86
2022/04/13 09:51:10;;;;;;;;;;;;;;;17.54;34.97;97963.81;4956226;28;19938;-86
2022/04/13 09:53:42;;;;;;;;;;;;;;;17.35;34.49;97960.97;4953646;28;19961;-86
2022/04/13 09:56:09;;;;;;;;;;;;;;;17.63;34.05;97958.94;4952685;28;19933;-86
2022/04/13 09:59:08;;;;;;;;;;;;;;;17.99;34.57;97959.78;4957125;28;19926;-87
2022/04/13 10:01:36;;;;;;;;;;;;;;;18.23;34.49;97956.00;4954612;28;20401;-79
2022/04/13 10:04:07;;;;;;;;;;;;;;;18.10;33.47;97958.06;4948576;28;19934;-77
2022/04/13 10:06:39;;;;;;;;;;;;;;;18.22;33.57;97946.94;4968501;28;19929;-92
2022/04/13 10:09:08;;;;;;;;;;;;;;;18.36;33.21;97940.13;4940313;28;19933;-82
2022/04/13 10:11:36;;;;;;;;;;;;;;;18.15;33.52;97927.53;4936072;28;19926;-79
2022/04/13 10:14:04;;;;;;;;;;;;;;;18.33;33.37;97933.41;4952966;28;19930;-79
2022/04/13 10:16:32;;;;;;;;;;;;;;;18.48;34.31;97921.53;4946634;28;19956;-78
2022/04/13 10:19:02;;;;;;;;;;;;;;;18.68;34.05;97930.59;4966862;28;20017;-80
2022/04/13 10:21:40;;;;;;;;;;;;;;;18.73;33.62;97924.00;4937222;28;19977;-78
2022/04/13 10:24:09;;;;;;;;;;;;;;;19.04;34.21;97911.97;4946787;29;19930;-86
2022/04/13 10:26:39;;;;;;;;;;;;;;;19.19;33.04;97913.81;4966971;28;19954;-93
2022/04/13 10:29:15;;;;;;;;;;;;;;;19.42;33.26;97913.78;4939914;29;19926;-92
2022/04/13 10:31:51;;;;;;;;;;;;;;;19.63;32.14;97913.34;4936855;28;20309;-93
2022/04/13 10:34:23;;;;;;;;;;;;;;;19.78;31.85;97908.84;4931524;29;19942;-92
2022/04/13 10:36:55;;;;;;;;;;;;;;;19.87;32.42;97907.41;4940235;28;19977;-93
2022/04/13 10:39:23;;;;;;;;;;;;;;;19.99;31.75;97894.56;4939481;28;19933;-94
2022/04/13 10:41:52;;;;;;;;;;;;;;;19.94;31.46;97906.72;4943229;28;20389;-94
2022/04/13 10:44:23;;;;;;;;;;;;;;;19.70;32.30;97901.63;4943330;28;19926;-94
2022/04/13 10:46:52;;;;;;;;;;;;;;;19.49;32.71;97902.88;4944038;28;20336;-96
2022/04/13 10:49:22;;;;;;;;;;;;;;;19.82;31.70;97893.97;4943574;28;19937;-96
2022/04/13 10:52:17;;;;;;;;;;;;;;;19.80;31.49;97896.28;4936522;28;19926;-96
2022/04/13 10:54:50;;;;;;;;;;;;;;;19.73;32.55;97893.44;4938238;29;19926;-96
2022/04/13 10:57:20;;;;;;;;;;;;;;;19.79;32.38;97888.38;4938279;28;20338;-81
2022/04/13 10:59:51;;;;;;;;;;;;;;;19.74;32.62;97896.97;4948693;28;19997;-78
2022/04/13 11:02:24;;;;;;;;;;;;;;;20.11;32.48;97886.06;4948973;28;19933;-78
2022/04/13 11:04:52;;;;;;;;;;;;;;;20.25;31.35;97882.69;4970141;28;20026;-77
2022/04/13 11:10:50;;;;;;;;;;;;;;;20.36;32.20;97884.41;4958025;28;20021;-78
2022/04/13 11:13:20;;;;;;;;;;;;;;;20.52;31.00;97883.44;4944434;28;20275;-76
2022/04/13 11:15:50;;;;;;;;;;;;;;;20.32;31.37;97889.06;4943393;28;19998;-76
2022/04/13 11:18:19;;;;;;;;;;;;;;;20.53;31.44;97882.25;4957738;28;19941;-79
2022/04/13 11:21:05;;;;;;;;;;;;;;;20.70;30.17;97881.63;4959882;28;19950;-78
2022/04/13 11:23:48;;;;;;;;;;;;;;;20.87;30.23;97883.78;4943391;28;19930;-77
2022/04/13 11:26:17;;;;;;;;;;;;;;;20.96;30.67;97877.16;4959685;28;19930;-77
2022/04/13 11:28:45;;;;;;;;;;;;;;;20.81;30.80;97887.25;4960376;28;19930;-77
2022/04/13 11:31:14;;;;;;;;;;;;;;;20.72;30.76;97886.78;4963773;28;19926;-76
2022/04/13 11:33:49;;;;;;;;;;;;;;;20.30;31.16;97887.88;4953007;28;20401;-79
2022/04/13 11:36:17;;;;;;;;;;;;;;;20.34;31.84;97889.47;4928124;28;20452;-79
2022/04/13 11:39:05;;;;;;;;;;;;;;;20.36;31.39;97887.16;4966909;28;19930;-80
2022/04/13 11:41:34;;;;;;;;;;;;;;;20.29;30.87;97881.53;4930221;29;19927;-79
2022/04/13 11:44:16;;;;;;;;;;;;;;;20.49;30.65;97882.19;4939504;28;19926;-78
2022/04/13 11:46:44;;;;;;;;;;;;;;;20.53;30.91;97885.00;4932556;28;20392;-80
2022/04/13 11:49:12;;;;;;;;;;;;;;;20.85;30.67;97879.81;4956799;28;19926;-93
2022/04/13 11:51:40;;;;;;;;;;;;;;;21.16;30.62;97879.31;4931355;28;19926;-92
2022/04/13 11:54:09;;;;;;;;;;;;;;;20.93;30.03;97884.22;4940226;28;19933;-92
2022/04/13 11:56:51;;;;;;;;;;;;;;;20.86;31.18;97873.91;4952859;28;19926;-93
2022/04/13 11:59:44;;;;;;;;;;;;;;;20.91;31.46;97881.84;4930656;28;19926;-94
2022/04/13 12:02:12;;;;;;;;;;;;;;;21.01;30.57;97880.34;4943832;28;19981;-94
2022/04/13 12:04:40;;;;;;;;;;;;;;;21.15;31.60;97874.19;4941940;28;19927;-94
2022/04/13 12:07:11;;;;;;;;;;;;;;;21.22;31.36;97874.22;4926082;28;19969;-94
2022/04/13 12:09:40;;;;;;;;;;;;;;;21.47;30.97;97882.75;4936647;28;19934;-93
2022/04/13 12:12:13;;;;;;;;;;;;;;;21.54;30.39;97874.50;4936249;28;19941;-94
2022/04/13 12:14:45;;;;;;;;;;;;;;;21.53;29.75;97872.13;4931789;28;19927;-94
2022/04/13 12:17:14;;;;;;;;;;;;;;;21.53;29.97;97878.44;4933054;28;20304;-94
2022/04/13 12:19:43;;;;;;;;;;;;;;;21.12;31.25;97872.97;4935183;28;19934;-94
2022/04/13 12:22:14;;;;;;;;;;;;;;;21.02;30.60;97875.63;4942426;28;19941;-96
2022/04/13 12:24:55;;;;;;;;;;;;;;;21.24;30.66;97866.34;4943422;28;19927;-95
2022/04/13 12:27:25;;;;;;;;;;;;;;;21.22;30.38;97865.16;4962389;28;19958;-95
2022/04/13 12:30:09;;;;;;;;;;;;;;;21.35;31.39;97869.22;4943625;29;19926;-93
2022/04/13 12:32:43;;;;;;;;;;;;;;;21.48;29.99;97864.19;4949401;28;20592;-93
2022/04/13 12:35:13;;;;;;;;;;;;;;;21.51;29.83;97863.41;4951652;28;19926;-95
2022/04/13 12:37:49;;;;;;;;;;;;;;;21.55;30.26;97867.00;4943346;28;20048;-93
2022/04/13 12:40:28;;;;;;;;;;;;;;;21.16;31.25;97864.72;4942734;28;19926;-94
2022/04/13 12:42:58;;;;;;;;;;;;;;;21.10;31.05;97860.72;4940366;28;19981;-95
2022/04/13 12:45:30;;;;;;;;;;;;;;;21.20;30.75;97860.00;4947841;28;19973;-95
2022/04/13 12:47:59;;;;;;;;;;;;;;;21.41;31.09;97862.97;4938916;28;19930;-93
2022/04/13 12:53:21;;;;;;;;;;;;;;;21.46;30.85;97861.78;4960211;28;19926;-95
2022/04/13 12:56:15;;;;;;;;;;;;;;;21.55;29.85;97864.22;4940030;28;19966;-95
2022/04/13 12:58:44;;;;;;;;;;;;;;;21.72;30.64;97863.53;4936877;28;20469;-96
2022/04/13 13:01:22;;;;;;;;;;;;;;;21.66;29.92;97854.03;4942309;28;19927;-93
2022/04/13 13:03:50;;;;;;;;;;;;;;;21.78;30.40;97850.94;4938411;29;19927;-92
2022/04/13 13:06:19;;;;;;;;;;;;;;;21.70;30.24;97855.63;4931015;28;20282;-92
2022/04/13 13:08:51;;;;;;;;;;;;;;;21.80;31.38;97854.13;4943863;28;19930;-92
2022/04/13 13:11:23;;;;;;;;;;;;;;;21.97;31.25;97858.16;4941038;28;19961;-93
2022/04/13 13:13:53;;;;;;;;;;;;;;;22.14;30.30;97853.91;4934913;29;19930;-80
2022/04/13 13:16:32;;;;;;;;;;;;;;;22.02;30.89;97855.00;4964019;28;19984;-79
2022/04/13 13:19:10;;;;;;;;;;;;;;;22.22;30.70;97853.56;4964817;28;19926;-79
2022/04/13 13:21:39;;;;;;;;;;;;;;;22.00;31.49;97856.56;4947263;28;20419;-80
2022/04/13 13:24:07;;;;;;;;;;;;;;;22.09;30.50;97849.50;4954023;28;19934;-79
2022/04/13 13:26:35;;;;;;;;;;;;;;;22.21;29.96;97851.16;4965931;28;20032;-81
2022/04/13 13:29:29;;;;;;;;;;;;;;;22.32;29.45;97851.19;4946271;28;20398;-85
2022/04/13 13:31:57;;;;;;;;;;;;;;;22.16;29.84;97851.56;4953557;28;19926;-82
2022/04/13 13:34:25;;;;;;;;;;;;;;;21.92;29.84;97845.47;4969322;28;19927;-89
2022/04/13 13:36:57;;;;;;;;;;;;;;;22.03;31.39;97845.53;4935141;28;19930;-79
2022/04/13 13:39:26;;;;;;;;;;;;;;;22.00;30.73;97837.19;4931220;28;19926;-80
2022/04/13 13:42:12;;;;;;;;;;;;;;;21.70;30.44;97841.81;4965954;28;19926;-83
2022/04/13 13:44:41;;;;;;;;;;;;;;;21.68;30.23;97840.63;4945758;28;20015;-82
2022/04/13 13:47:09;;;;;;;;;;;;;;;21.75;30.43;97835.13;4945048;28;19926;-82
2022/04/13 13:49:37;;;;;;;;;;;;;;;21.88;30.21;97844.66;4928350;28;19935;-80
2022/04/13 13:52:05;;;;;;;;;;;;;;;22.04;30.89;97846.31;4946975;28;19934;-82
2022/04/13 13:54:36;;;;;;;;;;;;;;;22.13;30.37;97832.97;4964327;28;19996;-78
2022/04/13 13:57:05;;;;;;;;;;;;;;;22.16;30.30;97837.72;4950366;28;20017;-79
2022/04/13 13:59:32;;;;;;;;;;;;;;;22.10;29.22;97834.50;4959651;28;20373;-81
2022/04/13 14:02:02;;;;;;;;;;;;;;;22.11;30.39;97830.59;4957090;28;19934;-82
2022/04/13 14:04:30;;;;;;;;;;;;;;;22.28;29.78;97833.81;4975627;28;19933;-81
2022/04/13 14:07:00;;;;;;;;;;;;;;;22.43;29.89;97822.38;4970967;28;20301;-81
2022/04/13 14:09:28;;;;;;;;;;;;;;;22.13;30.07;97828.22;4953726;28;20304;-82
2022/04/13 14:11:56;;;;;;;;;;;;;;;21.99;30.16;97828.13;4975161;28;20400;-81
2022/04/13 14:14:24;;;;;;;;;;;;;;;21.85;30.38;97823.31;4956438;28;20397;-82
2022/04/13 14:16:53;;;;;;;;;;;;;;;21.95;30.15;97825.34;4958432;28;19965;-81
2022/04/13 14:19:22;;;;;;;;;;;;;;;21.98;30.08;97821.78;4975673;28;19926;-80
2022/04/13 14:21:50;;;;;;;;;;;;;;;22.16;30.93;97824.69;4965655;28;19932;-80
2022/04/13 14:24:18;;;;;;;;;;;;;;;22.21;30.60;97821.53;4970617;28;19981;-81
2022/04/13 14:26:47;;;;;;;;;;;;;;;22.26;30.91;97820.34;4952891;28;19930;-80
2022/04/13 14:29:15;;;;;;;;;;;;;;;22.15;29.55;97825.03;4957800;28;19926;-81
2022/04/13 14:31:44;;;;;;;;;;;;;;;21.92;29.90;97823.34;4962509;28;19963;-81
2022/04/13 14:34:11;;;;;;;;;;;;;;;21.77;30.42;97827.22;4967890;28;19930;-80
2022/04/13 14:36:41;;;;;;;;;;;;;;;21.82;30.49;97817.78;4938878;28;20377;-81
2022/04/13 14:39:09;;;;;;;;;;;;;;;21.90;30.90;97825.72;4937980;29;19969;-82
2022/04/13 14:41:37;;;;;;;;;;;;;;;21.92;30.45;97828.88;4963420;28;19988;-81
2022/04/13 14:44:05;;;;;;;;;;;;;;;21.92;31.23;97819.78;4956570;28;19985;-81
2022/04/13 14:46:33;;;;;;;;;;;;;;;22.12;30.92;97823.06;4961054;28;19981;-81
2022/04/13 14:49:01;;;;;;;;;;;;;;;22.11;30.30;97819.53;4973800;28;19930;-82
2022/04/13 14:51:29;;;;;;;;;;;;;;;22.17;31.43;97814.41;4965101;28;19927;-82
2022/04/13 14:53:59;;;;;;;;;;;;;;;22.27;30.75;97821.16;4955524;28;20356;-80
2022/04/13 14:56:27;;;;;;;;;;;;;;;22.34;30.99;97824.72;4956077;28;19926;-81
2022/04/13 14:58:57;;;;;;;;;;;;;;;22.05;30.33;97825.75;4948861;28;20289;-81
2022/04/13 15:01:26;;;;;;;;;;;;;;;22.19;30.94;97814.78;4955907;29;20025;-80
2022/04/13 15:03:54;;;;;;;;;;;;;;;22.08;30.05;97823.03;4969944;28;19933;-83
2022/04/13 15:06:23;;;;;;;;;;;;;;;21.94;30.36;97826.53;4970229;28;20349;-81
2022/04/13 15:08:51;;;;;;;;;;;;;;;21.86;30.64;97824.91;4973806;28;19925;-81
2022/04/13 15:11:22;;;;;;;;;;;;;;;21.76;31.43;97822.88;4974346;28;20384;-81
2022/04/13 15:13:50;;;;;;;;;;;;;;;21.89;31.31;97824.16;4974520;28;19926;-81
2022/04/13 15:16:18;;;;;;;;;;;;;;;22.02;31.62;97826.56;4961965;28;20559;-82
2022/04/13 15:18:46;;;;;;;;;;;;;;;22.09;30.69;97832.13;4955331;29;20420;-82
2022/04/13 15:21:14;;;;;;;;;;;;;;;22.11;31.21;97830.59;4952306;28;20435;-81
2022/04/13 15:23:42;;;;;;;;;;;;;;;22.17;30.92;97831.78;4955008;28;19926;-80
2022/04/13 15:26:10;;;;;;;;;;;;;;;22.17;30.34;97829.03;4957091;28;19948;-81
2022/04/13 15:28:40;;;;;;;;;;;;;;;22.31;30.55;97825.50;4924897;29;20143;-81
2022/04/13 15:31:08;;;;;;;;;;;;;;;22.34;30.69;97821.97;4952548;28;19926;-82
2022/04/13 15:33:36;;;;;;;;;;;;;;;22.23;30.53;97826.66;4957120;28;19949;-82
2022/04/13 15:36:09;;;;;;;;;;;;;;;22.07;30.45;97828.94;4940748;28;19932;-84
2022/04/13 15:38:37;;;;;;;;;;;;;;;22.01;30.14;97817.47;4966071;28;19981;-79
2022/04/13 15:41:09;;;;;;;;;;;;;;;21.95;30.76;97825.34;4948515;28;19927;-79
2022/04/13 15:43:37;;;;;;;;;;;;;;;21.85;31.26;97828.06;4938007;29;20009;-79
2022/04/13 15:46:07;;;;;;;;;;;;;;;21.73;31.24;97825.63;4953610;28;19927;-78
2022/04/13 15:48:35;;;;;;;;;;;;;;;21.78;31.22;97831.56;4961874;28;20337;-77
2022/04/13 15:51:07;;;;;;;;;;;;;;;21.83;30.86;97833.97;4946254;28;19993;-77